createdAt,value
2022-12-22T00:01:49.759Z,100785.59
2022-12-22T00:05:10.818Z,100787.47
2022-12-22T00:08:31.980Z,100762.66
2022-12-22T00:11:53.043Z,100763.56
2022-12-22T00:15:13.990Z,100760.38
2022-12-22T00:18:35.860Z,100759.38
2022-12-22T00:21:56.572Z,100746.06
2022-12-22T00:25:17.489Z,100748.41
2022-12-22T00:28:38.437Z,100763.88
2022-12-22T00:32:00.455Z,100758.91
2022-12-22T00:35:21.461Z,100732.22
2022-12-22T00:38:42.533Z,100734.00
2022-12-22T00:42:03.476Z,100748.13
2022-12-22T00:45:25.012Z,100745.25
2022-12-22T00:48:45.679Z,100746.06
2022-12-22T00:52:06.915Z,100710.72
2022-12-22T00:55:32.676Z,100735.31
2022-12-22T00:58:53.987Z,100729.78
2022-12-22T01:02:15.100Z,100742.66
2022-12-22T01:05:36.527Z,100735.63
2022-12-22T01:08:58.093Z,100719.41
2022-12-22T01:12:19.737Z,100723.09
2022-12-22T01:15:41.018Z,100724.16
2022-12-22T01:19:02.099Z,100717.34
2022-12-22T01:22:28.615Z,100705.31
2022-12-22T01:25:49.661Z,100721.78
2022-12-22T01:29:10.744Z,100725.47
2022-12-22T01:32:33.019Z,100718.09
2022-12-22T01:35:54.141Z,100724.13
2022-12-22T01:39:15.078Z,100726.47
2022-12-22T01:42:36.441Z,100722.81
2022-12-22T01:45:57.594Z,100729.84
2022-12-22T01:49:18.804Z,100720.97
2022-12-22T01:52:43.057Z,100724.91
2022-12-22T01:56:04.120Z,100706.06
2022-12-22T01:59:25.088Z,100716.25
2022-12-22T02:02:48.569Z,100710.47
2022-12-22T02:06:38.863Z,100729.06
2022-12-22T02:10:13.469Z,100725.41
2022-12-22T02:14:03.104Z,100710.22
2022-12-22T02:17:53.057Z,100722.81
2022-12-22T02:21:22.757Z,100701.09
2022-12-22T02:24:51.798Z,100696.16
2022-12-22T02:28:14.013Z,100704.00
2022-12-22T02:31:35.006Z,100707.41
2022-12-22T02:34:56.185Z,100711.59
2022-12-22T02:38:26.265Z,100709.50
2022-12-22T02:41:52.934Z,100710.31
2022-12-22T02:45:26.296Z,100709.28
2022-12-22T02:49:09.101Z,100704.84
2022-12-22T02:52:46.102Z,100693.31
2022-12-22T02:56:06.978Z,100699.28
2022-12-22T02:59:28.130Z,100685.19
2022-12-22T03:02:49.190Z,100698.00
2022-12-22T03:06:09.991Z,100692.53
2022-12-22T03:09:31.127Z,100668.47
2022-12-22T03:12:52.273Z,100712.94
2022-12-22T03:16:13.706Z,100686.22
2022-12-22T03:19:34.501Z,100687.81
2022-12-22T03:22:55.316Z,100695.19
2022-12-22T03:25:57.898Z,100681.84
2022-12-22T03:29:00.377Z,100700.97
2022-12-22T03:32:02.992Z,100687.66
2022-12-22T03:35:05.848Z,100684.25
2022-12-22T03:38:08.350Z,100690.56
2022-12-22T03:41:30.783Z,100672.50
2022-12-22T03:44:51.942Z,100675.66
2022-12-22T03:47:54.437Z,100679.56
2022-12-22T03:50:57.267Z,100665.97
2022-12-22T03:53:59.974Z,100675.66
2022-12-22T03:57:02.419Z,100667.81
2022-12-22T04:00:05.883Z,100671.19
2022-12-22T04:03:14.817Z,100681.13
2022-12-22T04:06:18.103Z,100671.47
2022-12-22T04:09:22.521Z,100668.53
2022-12-22T04:12:43.697Z,100664.59
2022-12-22T04:15:46.203Z,100653.38
2022-12-22T04:18:48.773Z,100662.78
2022-12-22T04:21:51.289Z,100653.63
2022-12-22T04:24:53.732Z,100654.38
2022-12-22T04:27:56.180Z,100644.19
2022-12-22T04:30:58.620Z,100661.25
2022-12-22T04:34:01.063Z,100652.56
2022-12-22T04:37:13.058Z,100650.97
2022-12-22T04:40:20.793Z,100651.00
2022-12-22T04:43:23.312Z,100658.09
2022-12-22T04:46:25.885Z,100655.19
2022-12-22T04:49:28.450Z,100641.06
2022-12-22T04:52:30.892Z,100641.88
2022-12-22T04:55:33.423Z,100634.00
2022-12-22T04:58:36.268Z,100642.38
2022-12-22T05:01:38.870Z,100633.25
2022-12-22T05:04:41.308Z,100642.94
2022-12-22T05:07:44.170Z,100613.06
2022-12-22T05:10:46.824Z,100645.50
2022-12-22T05:13:49.223Z,100641.88
2022-12-22T05:16:51.899Z,100635.88
2022-12-22T05:19:54.393Z,100629.34
2022-12-22T05:22:57.264Z,100638.75
2022-12-22T05:25:59.798Z,100657.56
2022-12-22T05:29:02.167Z,100637.19
2022-12-22T05:32:04.672Z,100653.94
2022-12-22T05:35:08.025Z,100646.91
2022-12-22T05:38:10.468Z,100672.50
2022-12-22T05:41:13.376Z,100654.50
2022-12-22T05:44:15.877Z,100647.41
2022-12-22T05:47:18.323Z,100665.44
2022-12-22T05:50:23.538Z,100650.81
2022-12-22T05:53:34.338Z,100643.50
2022-12-22T05:56:36.824Z,100647.16
2022-12-22T05:59:39.525Z,100650.81
2022-12-22T06:02:42.893Z,100667.22
2022-12-22T06:05:45.480Z,100657.31
2022-12-22T06:08:47.914Z,100668.59
2022-12-22T06:11:50.759Z,100685.88
2022-12-22T06:14:53.174Z,100684.53
2022-12-22T06:17:55.576Z,100675.66
2022-12-22T06:20:58.087Z,100690.03
2022-12-22T06:24:00.477Z,100674.06
2022-12-22T06:27:03.166Z,100690.84
2022-12-22T06:30:06.353Z,100687.94
2022-12-22T06:33:08.920Z,100684.78
2022-12-22T06:36:11.757Z,100700.78
2022-12-22T06:39:16.017Z,100690.50
2022-12-22T06:42:36.994Z,100692.28
2022-12-22T06:45:41.513Z,100710.84
2022-12-22T06:48:43.984Z,100704.28
2022-12-22T06:51:46.814Z,100709.28
2022-12-22T06:54:49.232Z,100712.63
2022-12-22T06:57:51.901Z,100716.03
2022-12-22T07:00:56.498Z,100700.38
2022-12-22T07:03:59.052Z,100694.91
2022-12-22T07:07:01.587Z,100708.75
2022-12-22T07:10:05.398Z,100676.38
2022-12-22T07:13:19.499Z,100688.19
2022-12-22T07:16:22.296Z,100707.03
2022-12-22T07:19:24.909Z,100696.84
2022-12-22T07:22:30.469Z,100689.53
2022-12-22T07:25:33.902Z,100694.25
2022-12-22T07:28:38.328Z,100699.97
2022-12-22T07:31:40.791Z,100702.34
2022-12-22T07:34:43.433Z,100700.50
2022-12-22T07:37:48.098Z,100694.75
2022-12-22T07:41:04.654Z,100681.94
2022-12-22T07:44:07.938Z,100685.59
2022-12-22T07:47:10.359Z,100679.56
2022-12-22T07:50:25.752Z,100684.25
2022-12-22T07:53:28.357Z,100681.38
2022-12-22T07:56:30.819Z,100684.53
2022-12-22T07:59:33.229Z,100687.16
2022-12-22T08:02:39.183Z,100686.38
2022-12-22T08:05:41.889Z,100691.88
2022-12-22T08:08:44.867Z,100677.75
2022-12-22T08:11:49.242Z,100679.34
2022-12-22T08:14:51.906Z,100687.44
2022-12-22T08:17:54.319Z,100677.50
2022-12-22T08:20:58.535Z,100687.66
2022-12-22T08:24:00.997Z,100672.50
2022-12-22T08:27:06.476Z,100677.97
2022-12-22T08:30:10.261Z,100672.19
2022-12-22T08:33:17.749Z,100680.78
2022-12-22T08:36:20.320Z,100674.25
2022-12-22T08:39:24.023Z,100693.88
2022-12-22T08:42:26.744Z,100687.66
2022-12-22T08:45:29.208Z,100694.69
2022-12-22T08:48:31.821Z,100681.59
2022-12-22T08:51:34.350Z,100692.06
2022-12-22T08:54:36.835Z,100704.63
2022-12-22T08:57:39.274Z,100688.44
2022-12-22T09:00:42.559Z,100685.88
2022-12-22T09:03:49.466Z,100695.00
2022-12-22T09:06:53.498Z,100680.91
2022-12-22T09:09:57.525Z,100670.69
2022-12-22T09:13:00.001Z,100671.50
2022-12-22T09:16:06.788Z,100682.19
2022-12-22T09:19:09.384Z,100667.56
2022-12-22T09:22:11.816Z,100663.09
2022-12-22T09:25:14.722Z,100662.59
2022-12-22T09:28:17.552Z,100673.31
2022-12-22T09:31:21.700Z,100660.75
2022-12-22T09:34:27.275Z,100679.59
2022-12-22T09:37:29.712Z,100667.00
2022-12-22T09:40:34.783Z,100655.69
2022-12-22T09:43:37.555Z,100656.66
2022-12-22T09:46:40.297Z,100646.22
2022-12-22T09:49:42.865Z,100646.44
2022-12-22T09:52:51.770Z,100637.00
2022-12-22T09:55:54.203Z,100644.94
2022-12-22T09:58:57.149Z,100647.78
2022-12-22T10:02:42.325Z,100643.25
2022-12-22T10:06:01.866Z,100632.75
2022-12-22T10:09:48.317Z,100631.28
2022-12-22T10:12:45.717Z,100624.41
2022-12-22T10:15:48.473Z,100623.41
2022-12-22T10:19:11.966Z,100613.88
2022-12-22T10:22:41.665Z,100619.41
2022-12-22T10:29:28.832Z,100625.44
2022-12-22T10:32:31.662Z,100614.81
2022-12-22T10:35:50.913Z,100619.97
2022-12-22T10:39:00.383Z,100620.44
2022-12-22T10:42:13.508Z,100618.00
2022-12-22T10:45:18.748Z,100610.75
2022-12-22T10:48:40.128Z,100602.41
2022-12-22T10:51:44.520Z,100606.19
2022-12-22T10:54:47.428Z,100592.28
2022-12-22T10:57:50.483Z,100598.88
2022-12-22T11:01:04.465Z,100605.16
2022-12-22T11:04:24.938Z,100586.38
2022-12-22T11:07:29.195Z,100593.63
2022-12-22T11:11:01.278Z,100599.47
2022-12-22T11:14:06.978Z,100586.91
2022-12-22T11:17:11.731Z,100583.25
2022-12-22T11:20:20.958Z,100586.31
2022-12-22T11:23:48.285Z,100575.41
2022-12-22T11:27:18.077Z,100586.31
2022-12-22T11:30:24.795Z,100568.09
2022-12-22T11:33:45.441Z,100592.66
2022-12-22T11:37:22.475Z,100582.16
2022-12-22T11:40:48.407Z,100601.00
2022-12-22T11:43:57.965Z,100593.38
2022-12-22T11:47:05.581Z,100602.75
2022-12-22T11:51:01.237Z,100562.31
2022-12-22T11:54:20.261Z,100568.50
2022-12-22T11:57:47.198Z,100587.25
2022-12-22T12:01:15.373Z,100588.25
2022-12-22T12:04:48.027Z,100581.84
2022-12-22T12:07:50.429Z,100592.03
2022-12-22T12:11:21.009Z,100591.00
2022-12-22T12:14:43.685Z,100577.41
2022-12-22T12:18:18.300Z,100559.38
2022-12-22T12:21:23.461Z,100575.69
2022-12-22T12:24:47.313Z,100581.00
2022-12-22T12:28:01.522Z,100591.25
2022-12-22T12:31:05.322Z,100590.38
2022-12-22T12:34:11.026Z,100584.59
2022-12-22T12:37:37.972Z,100581.00
2022-12-22T12:40:53.216Z,100590.84
2022-12-22T12:43:56.219Z,100575.34
2022-12-22T12:47:27.571Z,100583.00
2022-12-22T12:50:34.268Z,100581.34
2022-12-22T12:54:15.265Z,100574.75
2022-12-22T12:57:26.328Z,100578.88
2022-12-22T13:00:31.121Z,100567.16
2022-12-22T13:04:02.671Z,100572.56
2022-12-22T13:06:57.115Z,100575.75
2022-12-22T13:10:19.317Z,100561.13
2022-12-22T13:13:21.765Z,100568.47
2022-12-22T13:16:27.329Z,100566.38
2022-12-22T13:19:30.703Z,100581.84
2022-12-22T13:22:33.417Z,100588.16
2022-12-22T13:25:58.909Z,100581.38
2022-12-22T13:29:23.841Z,100584.50
2022-12-22T13:32:30.432Z,100558.38
2022-12-22T13:35:40.180Z,100577.72
2022-12-22T13:38:47.259Z,100569.88
2022-12-22T13:41:50.361Z,100567.38
2022-12-22T13:44:53.244Z,100581.16
2022-12-22T13:47:55.971Z,100590.28
2022-12-22T13:51:01.654Z,100582.16
2022-12-22T13:54:17.141Z,100566.56
2022-12-22T13:57:21.531Z,100576.94
2022-12-22T14:00:25.886Z,100563.38
2022-12-22T14:03:58.316Z,100569.25
2022-12-22T14:06:50.905Z,100558.78
2022-12-22T14:09:56.366Z,100566.47
2022-12-22T14:12:58.970Z,100571.63
2022-12-22T14:16:02.906Z,100577.66
2022-12-22T14:19:05.679Z,100563.09
2022-12-22T14:22:11.411Z,100579.84
2022-12-22T14:25:16.951Z,100590.81
2022-12-22T14:28:25.205Z,100588.50
2022-12-22T14:31:27.787Z,100590.06
2022-12-22T14:34:32.641Z,100573.88
2022-12-22T14:37:36.458Z,100552.69
2022-12-22T14:40:41.861Z,100546.19
2022-12-22T14:43:49.129Z,100553.25
2022-12-22T14:47:16.480Z,100563.97
2022-12-22T14:50:21.163Z,100552.75
2022-12-22T14:53:36.722Z,100522.22
2022-12-22T14:56:47.637Z,100552.56
2022-12-22T15:00:22.356Z,100577.16
2022-12-22T15:03:24.881Z,100565.78
2022-12-22T15:06:27.725Z,100554.03
2022-12-22T15:10:13.220Z,100525.63
2022-12-22T15:12:58.903Z,100557.53
2022-12-22T15:16:01.968Z,100536.59
2022-12-22T15:19:04.939Z,100545.28
2022-12-22T15:22:08.102Z,100564.88
2022-12-22T15:25:19.140Z,100566.97
2022-12-22T15:28:21.620Z,100561.19
2022-12-22T15:31:24.166Z,100542.59
2022-12-22T15:34:28.832Z,100525.31
2022-12-22T15:37:31.266Z,100529.53
2022-12-22T15:40:37.498Z,100518.81
2022-12-22T15:43:58.352Z,100534.00
2022-12-22T15:47:01.719Z,100544.41
2022-12-22T15:50:04.754Z,100527.19
2022-12-22T15:53:11.030Z,100526.94
2022-12-22T15:56:18.228Z,100538.16
2022-12-22T15:59:23.923Z,100531.41
2022-12-22T16:02:26.523Z,100521.53
2022-12-22T16:05:29.038Z,100556.22
2022-12-22T16:08:37.733Z,100519.38
2022-12-22T16:11:40.247Z,100532.72
2022-12-22T16:14:50.016Z,100547.88
2022-12-22T16:17:53.176Z,100532.19
2022-12-22T16:20:56.251Z,100532.97
2022-12-22T16:24:00.503Z,100520.75
2022-12-22T16:27:03.500Z,100516.28
2022-12-22T16:30:19.392Z,100541.63
2022-12-22T16:33:21.898Z,100530.19
2022-12-22T16:36:24.272Z,100533.03
2022-12-22T16:39:26.635Z,100514.22
2022-12-22T16:45:49.919Z,100511.66
2022-12-22T16:48:54.584Z,100518.44
2022-12-22T16:51:57.015Z,100514.75
2022-12-22T16:54:59.569Z,100518.19
2022-12-22T16:58:05.545Z,100543.28
2022-12-22T17:01:39.456Z,100533.53
2022-12-22T17:04:42.020Z,100547.91
2022-12-22T17:07:44.473Z,100535.97
2022-12-22T17:10:47.150Z,100545.88
2022-12-22T17:13:51.027Z,100535.16
2022-12-22T17:16:53.528Z,100515.88
2022-12-22T17:19:55.921Z,100552.19
2022-12-22T17:23:00.420Z,100527.84
2022-12-22T17:26:06.549Z,100544.84
2022-12-22T17:29:18.317Z,100515.34
2022-12-22T17:32:21.735Z,100530.22
2022-12-22T17:35:25.839Z,100513.75
2022-12-22T17:38:28.996Z,100542.75
2022-12-22T17:41:31.528Z,100531.00
2022-12-22T17:44:33.993Z,100549.78
2022-12-22T17:47:42.616Z,100557.63
2022-12-22T17:50:49.976Z,100527.03
2022-12-22T17:53:53.159Z,100550.03
2022-12-22T17:57:01.052Z,100557.59
2022-12-22T18:00:04.742Z,100543.22
2022-12-22T18:03:17.735Z,100538.28
2022-12-22T18:06:23.244Z,100550.03
2022-12-22T18:09:26.540Z,100551.06
2022-12-22T18:12:29.895Z,100545.88
2022-12-22T18:15:32.406Z,100554.47
2022-12-22T18:18:34.948Z,100546.41
2022-12-22T18:21:37.659Z,100517.13
2022-12-22T18:24:40.191Z,100540.91
2022-12-22T18:27:43.128Z,100522.34
2022-12-22T18:30:47.359Z,100506.97
2022-12-22T18:33:50.266Z,100538.56
2022-12-22T18:36:52.666Z,100528.88
2022-12-22T18:39:55.144Z,100530.44
2022-12-22T18:42:58.606Z,100517.13
2022-12-22T18:46:01.163Z,100512.22
2022-12-22T18:49:05.997Z,100515.84
2022-12-22T18:52:19.506Z,100522.09
2022-12-22T18:55:24.210Z,100517.94
2022-12-22T18:58:27.308Z,100492.34
2022-12-22T19:01:30.131Z,100514.78
2022-12-22T19:04:32.956Z,100486.06
2022-12-22T19:07:35.553Z,100491.50
2022-12-22T19:10:41.727Z,100500.69
2022-12-22T19:13:48.736Z,100500.72
2022-12-22T19:16:51.324Z,100503.56
2022-12-22T19:19:53.923Z,100513.25
2022-12-22T19:22:56.621Z,100516.94
2022-12-22T19:26:06.967Z,100505.66
2022-12-22T19:29:12.725Z,100512.69
2022-12-22T19:32:32.971Z,100490.25
2022-12-22T19:35:35.560Z,100489.44
2022-12-22T19:38:38.200Z,100491.75
2022-12-22T19:41:43.541Z,100492.81
2022-12-22T19:44:46.183Z,100507.44
2022-12-22T19:47:49.111Z,100492.78
2022-12-22T19:50:54.096Z,100501.16
2022-12-22T19:53:56.728Z,100492.84
2022-12-22T19:56:59.658Z,100488.66
2022-12-22T20:00:02.159Z,100481.84
2022-12-22T20:03:19.611Z,100495.44
2022-12-22T20:06:22.349Z,100492.31
2022-12-22T20:09:24.803Z,100473.25
2022-12-22T20:12:37.673Z,100485.50
2022-12-22T20:15:40.574Z,100485.75
2022-12-22T20:18:44.191Z,100478.97
2022-12-22T20:21:46.651Z,100484.19
2022-12-22T20:24:50.124Z,100486.06
2022-12-22T20:27:54.747Z,100474.03
2022-12-22T20:31:01.637Z,100480.00
2022-12-22T20:34:04.941Z,100448.44
2022-12-22T20:37:14.060Z,100450.50
2022-12-22T20:40:24.678Z,100435.34
2022-12-22T20:43:29.022Z,100452.13
2022-12-22T20:46:31.656Z,100458.09
2022-12-22T20:49:34.362Z,100469.59
2022-12-22T20:52:36.819Z,100452.34
2022-12-22T20:55:40.287Z,100445.31
2022-12-22T20:58:42.729Z,100441.41
2022-12-22T21:01:46.641Z,100456.56
2022-12-22T21:04:49.520Z,100459.44
2022-12-22T21:07:52.060Z,100451.03
2022-12-22T21:10:55.458Z,100452.91
2022-12-22T21:13:58.459Z,100434.59
2022-12-22T21:17:01.028Z,100431.72
2022-12-22T21:20:03.784Z,100436.72
2022-12-22T21:23:06.877Z,100437.50
2022-12-22T21:26:31.100Z,100455.50
2022-12-22T21:29:33.541Z,100436.16
2022-12-22T21:32:35.944Z,100434.59
2022-12-22T21:35:38.526Z,100442.16
2022-12-22T21:38:41.013Z,100440.09
2022-12-22T21:42:01.420Z,100428.56
2022-12-22T21:45:04.628Z,100430.13
2022-12-22T21:48:07.214Z,100423.59
2022-12-22T21:51:11.945Z,100421.78
2022-12-22T21:54:14.955Z,100437.19
2022-12-22T21:57:17.371Z,100429.31
2022-12-22T22:00:21.339Z,100414.97
2022-12-22T22:03:23.814Z,100416.28
2022-12-22T22:06:26.359Z,100421.78
2022-12-22T22:09:28.822Z,100427.47
2022-12-22T22:12:36.186Z,100418.09
2022-12-22T22:15:38.695Z,100383.66
2022-12-22T22:18:42.458Z,100413.91
2022-12-22T22:21:46.117Z,100396.44
2022-12-22T22:24:48.590Z,100410.53
2022-12-22T22:27:51.357Z,100413.94
2022-12-22T22:30:53.892Z,100409.53
2022-12-22T22:33:56.766Z,100398.31
2022-12-22T22:36:59.143Z,100433.81
2022-12-22T22:40:01.688Z,100423.31
2022-12-22T22:43:05.532Z,100414.16
2022-12-22T22:46:07.940Z,100419.09
2022-12-22T22:49:10.401Z,100417.03
2022-12-22T22:52:12.759Z,100421.44
2022-12-22T22:55:15.536Z,100405.50
2022-12-22T22:58:18.048Z,100412.28
2022-12-22T23:01:20.491Z,100403.66
2022-12-22T23:04:23.342Z,100409.19
2022-12-22T23:07:25.781Z,100394.28
2022-12-22T23:10:28.479Z,100399.78
2022-12-22T23:13:31.037Z,100403.69
2022-12-22T23:16:38.111Z,100413.13
2022-12-22T23:19:40.938Z,100388.28
2022-12-22T23:22:43.687Z,100395.31
2022-12-22T23:25:48.582Z,100379.13
2022-12-22T23:28:51.452Z,100351.94
2022-12-22T23:31:53.976Z,100375.38
2022-12-22T23:34:56.453Z,100371.75
2022-12-22T23:37:58.917Z,100357.59
2022-12-22T23:41:03.961Z,100378.19
2022-12-22T23:44:06.366Z,100377.59
2022-12-22T23:47:08.941Z,100340.25
2022-12-22T23:50:11.976Z,100351.00
2022-12-22T23:53:16.395Z,100338.03
2022-12-22T23:56:18.895Z,100351.78
2022-12-22T23:59:21.364Z,100342.16
